createdAt,value
2023-03-16T00:01:33.867Z,79.06
2023-03-16T00:08:39.314Z,79.29
2023-03-16T00:11:12.237Z,79.11
2023-03-16T00:13:44.635Z,79.13
2023-03-16T00:16:25.338Z,79.20
2023-03-16T00:18:59.271Z,78.93
2023-03-16T00:25:35.027Z,78.60
2023-03-16T00:28:07.620Z,78.71
2023-03-16T00:30:47.782Z,78.82
2023-03-16T00:33:19.813Z,78.70
2023-03-16T00:36:03.324Z,78.81
2023-03-16T00:39:22.746Z,78.65
2023-03-16T00:42:01.789Z,78.87
2023-03-16T00:44:34.354Z,79.08
2023-03-16T00:47:15.504Z,79.03
2023-03-16T00:50:24.564Z,79.04
2023-03-16T00:52:56.964Z,79.06
2023-03-16T00:55:36.108Z,79.03
2023-03-16T00:58:08.478Z,79.03
2023-03-16T01:01:38.546Z,78.79
2023-03-16T01:08:42.309Z,79.03
2023-03-16T01:11:17.424Z,79.03
2023-03-16T01:23:42.520Z,79.02
2023-03-16T01:26:17.987Z,79.03
2023-03-16T01:29:35.596Z,79.17
2023-03-16T01:32:15.303Z,79.13
2023-03-16T01:34:48.132Z,79.35
2023-03-16T01:37:27.933Z,79.31
2023-03-16T01:40:40.657Z,79.02
2023-03-16T01:44:01.088Z,79.30
2023-03-16T01:46:43.923Z,79.39
2023-03-16T01:50:01.355Z,79.36
2023-03-16T01:53:53.579Z,79.22
2023-03-16T02:00:36.517Z,79.19
2023-03-16T02:03:49.572Z,79.42
2023-03-16T02:06:26.320Z,79.58
2023-03-16T02:09:08.957Z,79.67
2023-03-16T02:24:49.863Z,80.14
2023-03-16T02:31:37.279Z,79.76
2023-03-16T02:43:26.518Z,80.86
2023-03-16T02:51:41.930Z,80.93
2023-03-16T02:54:14.801Z,81.10
2023-03-16T03:04:57.729Z,81.07
2023-03-16T03:08:05.818Z,81.07
2023-03-16T03:10:40.846Z,80.96
2023-03-16T03:18:11.698Z,81.03
2023-03-16T03:22:27.798Z,80.94
2023-03-16T03:25:14.158Z,81.00
2023-03-16T03:28:08.422Z,80.94
2023-03-16T03:34:35.034Z,80.97
2023-03-16T03:37:07.620Z,80.96
2023-03-16T03:39:48.470Z,81.06
2023-03-16T03:42:23.880Z,80.94
2023-03-16T03:46:23.121Z,80.68
2023-03-16T03:48:58.437Z,80.71
2023-03-16T03:52:44.013Z,80.82
2023-03-16T03:55:23.150Z,80.82
2023-03-16T03:57:55.353Z,81.05
2023-03-16T04:00:34.166Z,81.42
2023-03-16T04:03:07.419Z,81.65
2023-03-16T04:11:29.619Z,81.53
2023-03-16T04:14:02.108Z,81.54
2023-03-16T04:16:35.195Z,81.54
2023-03-16T04:47:34.911Z,81.89
2023-03-16T04:54:41.680Z,81.75
2023-03-16T04:57:21.330Z,81.92
2023-03-16T05:04:37.205Z,81.98
2023-03-16T05:11:38.064Z,81.79
2023-03-16T05:14:32.973Z,81.66
2023-03-16T05:26:08.936Z,82.02
2023-03-16T05:33:08.333Z,82.01
2023-03-16T05:40:53.227Z,82.48
2023-03-16T05:51:20.743Z,82.78
2023-03-16T05:53:56.728Z,83.10
2023-03-16T06:01:33.723Z,83.32
2023-03-16T06:04:48.113Z,84.08
2023-03-16T06:11:54.590Z,85.61
2023-03-16T06:19:02.855Z,85.59
2023-03-16T06:21:42.600Z,85.71
2023-03-16T06:24:15.958Z,86.22
2023-03-16T06:26:54.382Z,86.36
2023-03-16T06:29:27.817Z,85.76
2023-03-16T06:32:07.907Z,84.62
2023-03-16T06:34:41.660Z,83.43
2023-03-16T06:37:21.815Z,83.96
2023-03-16T06:39:55.093Z,82.81
2023-03-16T06:42:27.755Z,82.03
2023-03-16T06:45:50.979Z,79.81
2023-03-16T06:48:30.650Z,76.24
2023-03-16T06:51:03.234Z,72.71
2023-03-16T06:58:08.980Z,71.98
2023-03-16T07:00:42.208Z,72.71
2023-03-16T07:03:21.992Z,73.13
2023-03-16T07:10:25.659Z,73.25
2023-03-16T07:12:58.948Z,73.49
2023-03-16T07:15:32.312Z,73.14
2023-03-16T07:18:40.015Z,73.74
2023-03-16T07:21:22.723Z,75.45
2023-03-16T07:23:57.936Z,75.87
2023-03-16T07:26:53.857Z,75.45
2023-03-16T07:29:32.411Z,73.68
2023-03-16T07:32:28.511Z,70.40
2023-03-16T07:36:05.837Z,68.73
2023-03-16T07:41:52.599Z,69.37
2023-03-16T07:44:56.441Z,70.96
2023-03-16T07:47:43.852Z,71.44
2023-03-16T07:51:39.233Z,70.68
2023-03-16T07:54:15.180Z,67.22
2023-03-16T07:56:50.624Z,66.63
2023-03-16T07:59:32.603Z,62.85
2023-03-16T08:02:09.021Z,63.55
2023-03-16T08:05:04.075Z,59.84
2023-03-16T08:08:48.190Z,60.24
2023-03-16T08:11:31.091Z,60.53
2023-03-16T08:14:29.090Z,59.00
2023-03-16T08:17:48.950Z,58.81
2023-03-16T08:20:27.262Z,55.16
2023-03-16T08:23:00.462Z,56.59
2023-03-16T08:25:57.201Z,53.44
2023-03-16T08:32:03.599Z,51.43
2023-03-16T08:38:45.349Z,46.88
2023-03-16T08:42:15.315Z,46.80
2023-03-16T08:46:25.518Z,46.98
2023-03-16T08:49:08.019Z,46.75
2023-03-16T08:51:42.446Z,45.93
2023-03-16T08:55:09.737Z,45.69
2023-03-16T08:57:45.197Z,46.01
2023-03-16T09:00:50.903Z,47.48
2023-03-16T09:03:25.037Z,45.04
2023-03-16T09:09:35.837Z,44.63
2023-03-16T09:16:41.747Z,40.41
2023-03-16T09:19:21.516Z,42.92
2023-03-16T09:22:06.925Z,41.54
2023-03-16T09:24:41.707Z,40.72
2023-03-16T09:27:22.526Z,38.74
2023-03-16T09:30:16.854Z,39.00
2023-03-16T09:33:02.322Z,40.37
2023-03-16T09:35:56.128Z,38.48
2023-03-16T09:38:32.327Z,39.59
2023-03-16T09:45:27.790Z,38.18
2023-03-16T10:00:00.503Z,36.62
2023-03-16T10:33:44.898Z,37.89
2023-03-16T10:54:44.852Z,37.25
2023-03-16T11:09:39.163Z,37.54
2023-03-16T11:23:01.742Z,37.90
2023-03-16T11:27:00.073Z,37.36
2023-03-16T11:38:59.121Z,38.36
2023-03-16T11:42:05.089Z,39.01
2023-03-16T11:45:10.179Z,40.57
2023-03-16T11:59:12.030Z,40.25
2023-03-16T12:05:54.102Z,38.12
2023-03-16T12:16:39.041Z,35.25
2023-03-16T12:22:39.302Z,34.35
2023-03-16T12:26:24.312Z,34.85
2023-03-16T12:34:01.325Z,33.78
2023-03-16T12:36:59.024Z,33.53
2023-03-16T12:40:07.921Z,32.14
2023-03-16T12:50:31.969Z,33.17
2023-03-16T12:57:33.947Z,30.79
2023-03-16T13:05:53.218Z,33.36
2023-03-16T13:12:31.112Z,31.07
2023-03-16T13:19:45.185Z,27.82
2023-03-16T13:31:03.598Z,28.02
2023-03-16T13:33:43.425Z,27.45
2023-03-16T13:36:17.643Z,28.29
2023-03-16T13:54:33.172Z,28.59
2023-03-16T13:57:37.301Z,27.76
2023-03-16T14:12:38.053Z,27.64
2023-03-16T14:26:49.863Z,28.36
2023-03-16T14:33:30.974Z,29.09
2023-03-16T14:56:44.488Z,30.15
2023-03-16T14:59:16.562Z,30.73
2023-03-16T15:01:50.677Z,30.71
2023-03-16T15:04:28.933Z,30.93
2023-03-16T15:07:02.038Z,30.93
2023-03-16T15:09:38.853Z,31.32
2023-03-16T15:12:21.666Z,31.53
2023-03-16T15:15:07.557Z,31.89
2023-03-16T15:17:40.638Z,31.98
2023-03-16T15:20:16.276Z,32.31
2023-03-16T15:22:49.884Z,32.54
2023-03-16T15:25:35.866Z,32.47
2023-03-16T15:28:17.732Z,32.82
2023-03-16T15:30:52.123Z,32.77
2023-03-16T15:33:24.953Z,32.98
2023-03-16T15:35:59.814Z,33.29
2023-03-16T15:41:38.289Z,33.64
2023-03-16T15:44:17.250Z,33.63
2023-03-16T15:46:49.475Z,33.58
2023-03-16T15:49:22.449Z,33.71
2023-03-16T15:51:55.103Z,34.06
2023-03-16T15:54:27.285Z,33.88
2023-03-16T15:56:59.570Z,34.35
2023-03-16T15:59:49.000Z,34.39
2023-03-16T16:02:34.178Z,34.57
2023-03-16T16:05:06.712Z,34.56
2023-03-16T16:07:38.717Z,34.57
2023-03-16T16:10:27.090Z,34.86
2023-03-16T16:13:00.171Z,35.28
2023-03-16T16:15:41.412Z,35.13
2023-03-16T16:21:47.996Z,35.49
2023-03-16T16:24:25.398Z,35.85
2023-03-16T16:26:57.478Z,36.35
2023-03-16T16:33:42.193Z,36.43
2023-03-16T16:40:25.924Z,37.09
2023-03-16T16:42:59.474Z,37.60
2023-03-16T16:45:32.030Z,37.48
2023-03-16T16:48:07.860Z,37.53
2023-03-16T16:50:39.991Z,37.33
2023-03-16T16:53:21.858Z,37.40
2023-03-16T16:55:54.507Z,37.70
2023-03-16T16:58:27.280Z,37.94
2023-03-16T17:01:00.315Z,38.56
2023-03-16T17:03:34.162Z,38.87
2023-03-16T17:06:07.009Z,39.01
2023-03-16T17:08:39.050Z,39.14
2023-03-16T17:14:22.764Z,39.57
2023-03-16T17:17:05.331Z,40.27
2023-03-16T17:19:38.009Z,40.88
2023-03-16T17:22:25.634Z,41.26
2023-03-16T17:24:58.525Z,41.41
2023-03-16T17:27:33.182Z,41.80
2023-03-16T17:30:29.193Z,42.12
2023-03-16T17:33:11.704Z,42.20
2023-03-16T17:35:45.049Z,42.69
2023-03-16T17:38:23.326Z,42.94
2023-03-16T17:40:56.329Z,42.81
2023-03-16T17:43:31.852Z,42.90
2023-03-16T17:46:11.316Z,43.06
2023-03-16T17:48:43.717Z,43.47
2023-03-16T17:51:17.922Z,43.71
2023-03-16T17:53:50.389Z,43.62
2023-03-16T17:56:25.457Z,43.79
2023-03-16T18:01:53.062Z,44.26
2023-03-16T18:04:27.787Z,44.32
2023-03-16T18:07:16.402Z,44.41
2023-03-16T18:09:49.039Z,44.55
2023-03-16T18:12:21.151Z,45.29
2023-03-16T18:14:58.583Z,44.95
2023-03-16T18:17:33.592Z,44.85
2023-03-16T18:20:16.920Z,45.24
2023-03-16T18:22:50.360Z,45.33
2023-03-16T18:25:44.282Z,45.44
2023-03-16T18:28:18.712Z,46.00
2023-03-16T18:30:53.682Z,45.91
2023-03-16T18:33:38.343Z,45.99
2023-03-16T18:36:20.733Z,46.38
2023-03-16T18:38:54.936Z,46.68
2023-03-16T18:41:29.371Z,47.31
2023-03-16T18:46:48.313Z,47.80
2023-03-16T18:52:20.653Z,47.73
2023-03-16T18:54:53.881Z,47.92
2023-03-16T18:57:28.950Z,48.43
2023-03-16T19:03:20.523Z,48.44
2023-03-16T19:05:56.204Z,48.89
2023-03-16T19:11:28.017Z,49.10
2023-03-16T19:14:00.154Z,49.51
2023-03-16T19:16:32.598Z,49.81
2023-03-16T19:19:04.758Z,50.13
2023-03-16T19:21:37.829Z,50.07
2023-03-16T19:24:31.820Z,50.16
2023-03-16T19:27:04.160Z,50.24
2023-03-16T19:29:37.365Z,50.51
2023-03-16T19:32:17.114Z,50.82
2023-03-16T19:34:49.768Z,51.19
2023-03-16T19:37:23.936Z,51.12
2023-03-16T19:39:56.124Z,51.35
2023-03-16T19:42:36.533Z,51.54
2023-03-16T19:45:08.241Z,51.94
2023-03-16T19:50:57.355Z,52.40
2023-03-16T19:53:29.552Z,52.64
2023-03-16T20:00:41.995Z,52.60
2023-03-16T20:03:14.584Z,53.02
2023-03-16T20:05:46.880Z,53.28
2023-03-16T20:08:28.652Z,53.63
2023-03-16T20:11:48.132Z,53.72
2023-03-16T20:18:33.029Z,53.66
2023-03-16T20:21:05.324Z,53.92
2023-03-16T20:32:43.040Z,54.91
2023-03-16T20:38:43.330Z,55.59
2023-03-16T20:49:58.371Z,56.23
2023-03-16T20:52:31.277Z,56.27
2023-03-16T20:55:21.431Z,56.30
2023-03-16T20:57:55.468Z,56.54
2023-03-16T21:00:39.221Z,56.83
2023-03-16T21:20:02.262Z,57.68
2023-03-16T21:30:46.349Z,58.11
2023-03-16T21:33:35.047Z,58.05
2023-03-16T21:36:59.424Z,58.12
2023-03-16T21:39:31.639Z,58.39
2023-03-16T21:47:00.937Z,59.31
2023-03-16T21:49:39.552Z,59.35
2023-03-16T22:01:11.025Z,60.10
2023-03-16T22:03:51.539Z,60.10
2023-03-16T22:06:48.252Z,59.87
2023-03-16T22:09:22.655Z,60.23
2023-03-16T22:12:40.415Z,60.81
2023-03-16T22:15:20.208Z,60.50
2023-03-16T22:17:53.125Z,60.77
2023-03-16T22:23:40.914Z,60.83
2023-03-16T22:26:59.345Z,60.80
2023-03-16T22:29:33.581Z,61.15
2023-03-16T22:32:22.886Z,61.17
2023-03-16T22:39:21.780Z,61.54
2023-03-16T22:41:54.053Z,61.78
2023-03-16T22:48:59.154Z,62.07
2023-03-16T22:51:34.188Z,62.27
2023-03-16T22:54:57.634Z,62.56
2023-03-16T23:02:02.816Z,63.24
2023-03-16T23:04:34.847Z,63.21
2023-03-16T23:07:15.094Z,63.24
2023-03-16T23:13:39.736Z,63.28
2023-03-16T23:16:39.593Z,63.37
2023-03-16T23:24:02.656Z,63.98
2023-03-16T23:26:35.987Z,64.06
2023-03-16T23:29:08.157Z,63.75
2023-03-16T23:31:46.710Z,63.56
2023-03-16T23:38:08.403Z,64.02
2023-03-16T23:40:41.534Z,64.22
2023-03-16T23:43:27.842Z,64.26
2023-03-16T23:46:18.297Z,64.44
2023-03-16T23:48:53.427Z,64.62
2023-03-16T23:52:13.578Z,64.64
2023-03-16T23:56:32.313Z,65.06
2023-03-16T23:59:04.411Z,65.26
